EZY67NB LCLK-EGKK
Flight info
| Callsign | EZY67NB |
|---|---|
| Flight time | N/A |
| Altitude | 38000 |
| Route | PHA M31 GENOS DCT PEDER DCT EVENO DCT BENEM UN127 RIKSO DCT TALAS DCT MAVAR DCT RETRA DCT SIPAL DCT LABIN DCT VIC DCT RESIA DCT ELMUR DCT RIPUS DCT DITON DCT HOC DCT LUL DCT RLP DCT ROTSI DCT KOTUN DCT NINAL DCT KESAX DCT KUNAV |
| Aircraft | A20N/M-SDE2E3FGHIJ1RWXYZ/LB1G1 |
Departure
| Time | 2026-05-06 07:23 |
|---|---|
| Airport | Larnaca International Airport (LCLK) |
Arrival
| Time | N/A |
|---|---|
| Airport | London Gatwick Airport (EGKK) |
| Time | Latitude | Longitude | Altitude | Speed | Heading |
|---|---|---|---|---|---|
| 2026-05-06 06:56 | 34.88522 | 33.63103 | 18 ft | 0 kts | 226° |
| 2026-05-06 07:17 | 34.88522 | 33.63102 | 18 ft | 0 kts | 226° |
| 2026-05-06 07:17 | 34.88516 | 33.63096 | 18 ft | 3 kts | 227° |
| 2026-05-06 07:18 | 34.88488 | 33.63071 | 18 ft | 6 kts | 193° |
| 2026-05-06 07:18 | 34.88437 | 33.63108 | 18 ft | 9 kts | 136° |
| 2026-05-06 07:18 | 34.88385 | 33.63169 | 18 ft | 10 kts | 135° |
| 2026-05-06 07:18 | 34.88358 | 33.63231 | 17 ft | 9 kts | 69° |
| 2026-05-06 07:19 | 34.88408 | 33.63298 | 16 ft | 11 kts | 45° |
| 2026-05-06 07:19 | 34.88446 | 33.63370 | 15 ft | 10 kts | 94° |
| 2026-05-06 07:19 | 34.88411 | 33.63427 | 15 ft | 3 kts | 136° |
| 2026-05-06 07:19 | 34.88408 | 33.63430 | 15 ft | 0 kts | 136° |
| 2026-05-06 07:22 | 34.88390 | 33.63451 | 15 ft | 8 kts | 136° |
| 2026-05-06 07:22 | 34.88339 | 33.63511 | 15 ft | 11 kts | 143° |
| 2026-05-06 07:22 | 34.88267 | 33.63486 | 14 ft | 15 kts | 225° |
| 2026-05-06 07:22 | 34.88063 | 33.63237 | 15 ft | 74 kts | 225° |
| 2026-05-06 07:23 | 34.87547 | 33.62606 | 13 ft | 133 kts | 225° |
| 2026-05-06 07:23 | 34.86771 | 33.61657 | 45 ft | 177 kts | 224° |
| 2026-05-06 07:23 | 34.85912 | 33.60577 | 514 ft | 181 kts | 226° |
| 2026-05-06 07:23 | 34.85043 | 33.59452 | 1123 ft | 185 kts | 227° |
| 2026-05-06 07:24 | 34.84166 | 33.58304 | 1758 ft | 187 kts | 229° |
| 2026-05-06 07:24 | 34.83257 | 33.57107 | 2123 ft | 202 kts | 227° |
| 2026-05-06 07:24 | 34.82233 | 33.55805 | 2400 ft | 224 kts | 227° |
| 2026-05-06 07:24 | 34.81124 | 33.54349 | 2825 ft | 240 kts | 228° |
| 2026-05-06 07:25 | 34.79956 | 33.52811 | 3235 ft | 258 kts | 227° |
| 2026-05-06 07:25 | 34.78706 | 33.51192 | 3762 ft | 270 kts | 227° |
| 2026-05-06 07:25 | 34.77396 | 33.49529 | 4576 ft | 271 kts | 227° |
| 2026-05-06 07:25 | 34.76115 | 33.47904 | 5379 ft | 272 kts | 227° |
| 2026-05-06 07:26 | 34.74810 | 33.46231 | 6147 ft | 275 kts | 230° |
| 2026-05-06 07:26 | 34.73767 | 33.44280 | 6910 ft | 277 kts | 247° |
| 2026-05-06 07:26 | 34.73199 | 33.42066 | 7694 ft | 278 kts | 262° |
| 2026-05-06 07:26 | 34.73091 | 33.39745 | 8460 ft | 279 kts | 275° |
| 2026-05-06 07:27 | 34.73391 | 33.37417 | 9236 ft | 280 kts | 281° |
| 2026-05-06 07:27 | 34.73626 | 33.35078 | 9999 ft | 282 kts | 272° |
| 2026-05-06 07:27 | 34.73640 | 33.32706 | 10683 ft | 287 kts | 270° |
| 2026-05-06 07:27 | 34.73610 | 33.30254 | 11225 ft | 296 kts | 269° |
| 2026-05-06 07:28 | 34.73556 | 33.27774 | 11896 ft | 299 kts | 269° |
| 2026-05-06 07:28 | 34.73490 | 33.25205 | 12505 ft | 305 kts | 269° |
| 2026-05-06 07:28 | 34.73346 | 33.20010 | 13824 ft | 311 kts | 269° |
| 2026-05-06 07:29 | 34.73270 | 33.17393 | 14501 ft | 314 kts | 269° |
| 2026-05-06 07:29 | 34.73193 | 33.14742 | 15182 ft | 315 kts | 270° |
| 2026-05-06 07:29 | 34.73116 | 33.12080 | 15857 ft | 317 kts | 270° |
| 2026-05-06 07:29 | 34.73038 | 33.09432 | 16484 ft | 319 kts | 270° |
| 2026-05-06 07:30 | 34.72960 | 33.06744 | 17094 ft | 322 kts | 270° |
| 2026-05-06 07:30 | 34.72879 | 33.03994 | 17537 ft | 329 kts | 270° |
| 2026-05-06 07:30 | 34.72794 | 33.01189 | 18060 ft | 334 kts | 270° |
| 2026-05-06 07:30 | 34.72708 | 32.98370 | 18652 ft | 336 kts | 270° |
| 2026-05-06 07:31 | 34.72621 | 32.95535 | 19235 ft | 338 kts | 270° |
| 2026-05-06 07:31 | 34.72535 | 32.92715 | 19781 ft | 340 kts | 270° |
| 2026-05-06 07:31 | 34.72445 | 32.89813 | 20310 ft | 343 kts | 270° |
| 2026-05-06 07:31 | 34.72355 | 32.86915 | 20842 ft | 345 kts | 270° |
| 2026-05-06 07:32 | 34.72262 | 32.84011 | 21392 ft | 347 kts | 271° |
| 2026-05-06 07:32 | 34.72169 | 32.81118 | 21922 ft | 348 kts | 271° |
| 2026-05-06 07:32 | 34.72075 | 32.78162 | 22436 ft | 350 kts | 270° |
| 2026-05-06 07:32 | 34.71979 | 32.75216 | 22914 ft | 353 kts | 271° |
| 2026-05-06 07:33 | 34.71882 | 32.72251 | 23418 ft | 354 kts | 271° |
| 2026-05-06 07:33 | 34.71786 | 32.69256 | 23935 ft | 355 kts | 271° |
| 2026-05-06 07:33 | 34.71693 | 32.66256 | 24407 ft | 356 kts | 271° |
| 2026-05-06 07:33 | 34.71601 | 32.63286 | 24853 ft | 358 kts | 271° |
| 2026-05-06 07:34 | 34.71504 | 32.60259 | 25293 ft | 360 kts | 271° |
| 2026-05-06 07:34 | 34.71406 | 32.57224 | 25710 ft | 361 kts | 271° |
| 2026-05-06 07:34 | 34.71305 | 32.54164 | 26125 ft | 363 kts | 271° |
| 2026-05-06 07:34 | 34.71205 | 32.51086 | 26517 ft | 365 kts | 271° |
| 2026-05-06 07:35 | 34.71076 | 32.48001 | 26916 ft | 367 kts | 270° |
| 2026-05-06 07:35 | 34.70913 | 32.44918 | 27297 ft | 368 kts | 269° |
| 2026-05-06 07:35 | 34.70744 | 32.41818 | 27649 ft | 370 kts | 270° |
| 2026-05-06 07:35 | 34.70577 | 32.38688 | 28006 ft | 372 kts | 269° |
| 2026-05-06 07:36 | 34.70408 | 32.35563 | 28370 ft | 373 kts | 269° |
| 2026-05-06 07:36 | 34.70238 | 32.32423 | 28725 ft | 374 kts | 269° |
| 2026-05-06 07:36 | 34.70069 | 32.29275 | 29081 ft | 375 kts | 269° |
| 2026-05-06 07:36 | 34.69898 | 32.26126 | 29395 ft | 377 kts | 269° |
| 2026-05-06 07:37 | 34.69725 | 32.22935 | 29721 ft | 379 kts | 269° |
| 2026-05-06 07:37 | 34.69552 | 32.19747 | 30038 ft | 380 kts | 269° |
| 2026-05-06 07:37 | 34.69377 | 32.16559 | 30349 ft | 381 kts | 269° |
| 2026-05-06 07:37 | 34.69201 | 32.13358 | 30638 ft | 383 kts | 269° |
| 2026-05-06 07:38 | 34.69022 | 32.10122 | 30901 ft | 385 kts | 269° |
| 2026-05-06 07:38 | 34.68844 | 32.06905 | 31154 ft | 387 kts | 269° |
| 2026-05-06 07:38 | 34.68662 | 32.03638 | 31414 ft | 388 kts | 269° |
| 2026-05-06 07:38 | 34.68502 | 32.00385 | 31653 ft | 389 kts | 271° |
| 2026-05-06 07:39 | 34.68544 | 31.97103 | 31881 ft | 389 kts | 276° |
| 2026-05-06 07:39 | 34.68825 | 31.93819 | 32112 ft | 389 kts | 280° |
| 2026-05-06 07:39 | 34.69331 | 31.90621 | 32344 ft | 389 kts | 285° |
| 2026-05-06 07:39 | 34.70071 | 31.87460 | 32557 ft | 390 kts | 289° |
| 2026-05-06 07:40 | 34.71020 | 31.84425 | 32756 ft | 391 kts | 293° |
| 2026-05-06 07:40 | 34.72202 | 31.81449 | 32935 ft | 392 kts | 298° |
| 2026-05-06 07:40 | 34.73562 | 31.78557 | 33168 ft | 392 kts | 299° |
| 2026-05-06 07:40 | 34.74934 | 31.75719 | 33415 ft | 391 kts | 300° |
| 2026-05-06 07:41 | 34.76308 | 31.72890 | 33643 ft | 391 kts | 300° |
| 2026-05-06 07:41 | 34.77692 | 31.70041 | 33879 ft | 390 kts | 300° |
| 2026-05-06 07:41 | 34.79071 | 31.67204 | 34095 ft | 390 kts | 300° |
| 2026-05-06 07:41 | 34.80440 | 31.64382 | 34270 ft | 389 kts | 300° |
| 2026-05-06 07:42 | 34.81824 | 31.61531 | 34426 ft | 389 kts | 299° |
| 2026-05-06 07:42 | 34.83192 | 31.58705 | 34559 ft | 390 kts | 300° |
| 2026-05-06 07:42 | 34.84570 | 31.55861 | 34706 ft | 390 kts | 300° |
| 2026-05-06 07:42 | 34.85930 | 31.53051 | 34862 ft | 389 kts | 300° |
| 2026-05-06 07:43 | 34.87309 | 31.50200 | 35027 ft | 389 kts | 300° |
| 2026-05-06 07:43 | 34.88658 | 31.47409 | 35166 ft | 388 kts | 300° |
| 2026-05-06 07:43 | 34.90038 | 31.44551 | 35283 ft | 389 kts | 299° |
| 2026-05-06 07:43 | 34.91402 | 31.41726 | 35412 ft | 389 kts | 300° |
| 2026-05-06 07:44 | 34.92763 | 31.38900 | 35539 ft | 389 kts | 300° |
| 2026-05-06 07:44 | 34.94141 | 31.36040 | 35646 ft | 389 kts | 300° |
| 2026-05-06 07:44 | 34.95505 | 31.33203 | 35756 ft | 390 kts | 299° |
| 2026-05-06 07:44 | 34.96870 | 31.30365 | 35887 ft | 390 kts | 299° |
| 2026-05-06 07:45 | 34.98236 | 31.27525 | 36016 ft | 390 kts | 299° |
| 2026-05-06 07:45 | 34.99608 | 31.24664 | 36135 ft | 390 kts | 299° |
| 2026-05-06 07:45 | 35.00964 | 31.21833 | 36255 ft | 390 kts | 299° |
| 2026-05-06 07:45 | 35.02338 | 31.18965 | 36371 ft | 390 kts | 299° |
| 2026-05-06 07:46 | 35.05515 | 31.13624 | 36596 ft | 392 kts | 308° |
| 2026-05-06 07:46 | 35.07304 | 31.11095 | 36724 ft | 392 kts | 308° |
| 2026-05-06 07:46 | 35.09078 | 31.08588 | 36814 ft | 393 kts | 308° |
| 2026-05-06 07:47 | 35.12633 | 31.03534 | 37011 ft | 393 kts | 308° |
| 2026-05-06 07:47 | 35.14411 | 31.00996 | 37125 ft | 393 kts | 308° |
| 2026-05-06 07:47 | 35.16181 | 30.98462 | 37220 ft | 393 kts | 308° |
| 2026-05-06 07:48 | 35.19707 | 30.93408 | 37390 ft | 394 kts | 308° |
| 2026-05-06 07:48 | 35.23275 | 30.88324 | 37544 ft | 395 kts | 309° |
| 2026-05-06 07:49 | 35.26884 | 30.83286 | 37691 ft | 395 kts | 309° |
| 2026-05-06 07:49 | 35.30498 | 30.78227 | 37835 ft | 396 kts | 309° |
| 2026-05-06 07:50 | 35.34120 | 30.73140 | 37982 ft | 396 kts | 309° |
| 2026-05-06 07:50 | 35.37730 | 30.68059 | 38034 ft | 397 kts | 309° |
| 2026-05-06 07:51 | 35.41351 | 30.62956 | 38035 ft | 397 kts | 309° |
| 2026-05-06 07:51 | 35.44946 | 30.57879 | 38036 ft | 397 kts | 309° |
| 2026-05-06 07:52 | 35.48558 | 30.52767 | 38045 ft | 397 kts | 309° |
| 2026-05-06 07:52 | 35.52153 | 30.47675 | 38039 ft | 396 kts | 309° |
| 2026-05-06 07:53 | 35.55754 | 30.42567 | 38036 ft | 396 kts | 309° |
| 2026-05-06 07:53 | 35.59356 | 30.37448 | 38034 ft | 396 kts | 309° |
| 2026-05-06 07:54 | 35.62955 | 30.32327 | 38037 ft | 396 kts | 309° |
| 2026-05-06 07:54 | 35.66534 | 30.27224 | 38049 ft | 397 kts | 309° |
| 2026-05-06 07:55 | 35.70128 | 30.22094 | 38040 ft | 396 kts | 309° |
| 2026-05-06 07:55 | 35.73718 | 30.16963 | 38038 ft | 396 kts | 309° |
| 2026-05-06 07:56 | 35.77300 | 30.11830 | 38033 ft | 396 kts | 309° |
| 2026-05-06 07:56 | 35.80877 | 30.06696 | 38038 ft | 395 kts | 309° |
| 2026-05-06 07:57 | 35.84444 | 30.01571 | 38054 ft | 395 kts | 309° |
| 2026-05-06 07:57 | 35.88026 | 29.96432 | 38035 ft | 396 kts | 309° |
| 2026-05-06 07:58 | 35.91607 | 29.91282 | 38045 ft | 396 kts | 310° |
| 2026-05-06 07:58 | 35.95181 | 29.86130 | 38033 ft | 395 kts | 310° |
| 2026-05-06 07:59 | 35.98739 | 29.80990 | 38046 ft | 395 kts | 309° |
| 2026-05-06 07:59 | 36.02288 | 29.75857 | 38037 ft | 395 kts | 310° |
| 2026-05-06 08:00 | 36.05853 | 29.70690 | 38043 ft | 395 kts | 310° |
| 2026-05-06 08:00 | 36.09400 | 29.65543 | 38057 ft | 395 kts | 310° |
| 2026-05-06 08:01 | 36.12954 | 29.60377 | 38053 ft | 395 kts | 310° |
| 2026-05-06 08:01 | 36.16521 | 29.55199 | 38056 ft | 395 kts | 310° |
| 2026-05-06 08:02 | 36.20121 | 29.50083 | 38047 ft | 394 kts | 310° |
| 2026-05-06 08:02 | 36.23690 | 29.44978 | 38057 ft | 394 kts | 310° |
| 2026-05-06 08:03 | 36.27254 | 29.39858 | 38072 ft | 394 kts | 310° |
| 2026-05-06 08:03 | 36.30811 | 29.34746 | 38082 ft | 393 kts | 310° |
| 2026-05-06 08:04 | 36.34385 | 29.29596 | 38066 ft | 393 kts | 310° |
| 2026-05-06 08:04 | 36.37926 | 29.24482 | 38070 ft | 393 kts | 310° |
| 2026-05-06 08:05 | 36.41487 | 29.19345 | 38069 ft | 393 kts | 310° |
| 2026-05-06 08:05 | 36.45041 | 29.14205 | 38068 ft | 393 kts | 310° |
| 2026-05-06 08:06 | 36.48586 | 29.09067 | 38061 ft | 393 kts | 310° |
| 2026-05-06 08:06 | 36.52140 | 29.03905 | 38056 ft | 393 kts | 310° |
| 2026-05-06 08:07 | 36.55680 | 28.98756 | 38061 ft | 392 kts | 310° |
| 2026-05-06 08:07 | 36.59221 | 28.93593 | 38049 ft | 392 kts | 310° |
| 2026-05-06 08:08 | 36.62744 | 28.88449 | 38043 ft | 392 kts | 310° |
| 2026-05-06 08:08 | 36.66273 | 28.83288 | 38052 ft | 392 kts | 310° |
| 2026-05-06 08:09 | 36.69788 | 28.78142 | 38051 ft | 393 kts | 310° |
| 2026-05-06 08:09 | 36.73322 | 28.72975 | 38059 ft | 392 kts | 310° |
| 2026-05-06 08:10 | 36.76872 | 28.67768 | 38047 ft | 392 kts | 310° |
| 2026-05-06 08:10 | 36.80383 | 28.62606 | 38058 ft | 392 kts | 310° |
| 2026-05-06 08:11 | 36.83903 | 28.57424 | 38055 ft | 391 kts | 310° |
| 2026-05-06 08:11 | 36.87398 | 28.52268 | 38063 ft | 390 kts | 310° |
| 2026-05-06 08:12 | 36.90897 | 28.47096 | 38054 ft | 390 kts | 310° |
| 2026-05-06 08:12 | 36.94378 | 28.41941 | 38055 ft | 391 kts | 310° |
| 2026-05-06 08:13 | 36.97885 | 28.36739 | 38051 ft | 391 kts | 310° |
| 2026-05-06 08:13 | 37.01377 | 28.31551 | 38057 ft | 390 kts | 310° |
| 2026-05-06 08:14 | 37.04872 | 28.26357 | 38058 ft | 390 kts | 310° |
| 2026-05-06 08:14 | 37.08356 | 28.21171 | 38059 ft | 390 kts | 310° |
| 2026-05-06 08:15 | 37.11834 | 28.15993 | 38072 ft | 390 kts | 310° |
| 2026-05-06 08:15 | 37.15312 | 28.10797 | 38069 ft | 390 kts | 310° |
| 2026-05-06 08:16 | 37.18797 | 28.05580 | 38073 ft | 389 kts | 310° |
| 2026-05-06 08:16 | 37.22256 | 28.00403 | 38083 ft | 389 kts | 310° |
| 2026-05-06 08:17 | 37.25738 | 27.95190 | 38092 ft | 390 kts | 310° |
| 2026-05-06 08:17 | 37.29197 | 27.89995 | 38092 ft | 389 kts | 310° |
| 2026-05-06 08:18 | 37.32666 | 27.84774 | 38090 ft | 390 kts | 310° |
| 2026-05-06 08:18 | 37.36120 | 27.79568 | 38092 ft | 389 kts | 310° |
| 2026-05-06 08:19 | 37.39584 | 27.74338 | 38090 ft | 389 kts | 310° |
| 2026-05-06 08:19 | 37.43042 | 27.69106 | 38092 ft | 390 kts | 310° |
| 2026-05-06 08:20 | 37.46497 | 27.63875 | 38090 ft | 389 kts | 310° |
| 2026-05-06 08:20 | 37.49931 | 27.58660 | 38082 ft | 390 kts | 310° |
| 2026-05-06 08:21 | 37.53393 | 27.53399 | 38079 ft | 390 kts | 310° |
| 2026-05-06 08:21 | 37.56851 | 27.48133 | 38070 ft | 390 kts | 310° |
| 2026-05-06 08:22 | 37.60298 | 27.42877 | 38071 ft | 390 kts | 310° |
| 2026-05-06 08:22 | 37.63736 | 27.37621 | 38071 ft | 390 kts | 310° |
| 2026-05-06 08:23 | 37.67191 | 27.32331 | 38077 ft | 390 kts | 310° |
| 2026-05-06 08:23 | 37.70618 | 27.27083 | 38081 ft | 390 kts | 310° |
| 2026-05-06 08:24 | 37.74069 | 27.21799 | 38075 ft | 391 kts | 310° |
| 2026-05-06 08:24 | 37.77518 | 27.16504 | 38083 ft | 389 kts | 310° |
| 2026-05-06 08:25 | 37.80930 | 27.11254 | 38087 ft | 389 kts | 310° |
| 2026-05-06 08:25 | 37.84367 | 27.05955 | 38086 ft | 390 kts | 310° |
| 2026-05-06 08:26 | 37.87805 | 27.00644 | 38085 ft | 391 kts | 310° |
| 2026-05-06 08:26 | 37.91246 | 26.95321 | 38089 ft | 391 kts | 310° |
| 2026-05-06 08:27 | 37.94665 | 26.90018 | 38087 ft | 391 kts | 310° |
| 2026-05-06 08:27 | 37.98091 | 26.84696 | 38086 ft | 390 kts | 310° |
| 2026-05-06 08:28 | 38.01503 | 26.79388 | 38080 ft | 390 kts | 310° |
| 2026-05-06 08:28 | 38.04931 | 26.74046 | 38082 ft | 390 kts | 310° |
| 2026-05-06 08:29 | 38.08340 | 26.68740 | 38082 ft | 390 kts | 310° |
| 2026-05-06 08:29 | 38.11747 | 26.63425 | 38077 ft | 389 kts | 310° |
| 2026-05-06 08:30 | 38.15147 | 26.58108 | 38080 ft | 388 kts | 310° |
| 2026-05-06 08:30 | 38.18558 | 26.52763 | 38078 ft | 388 kts | 310° |
| 2026-05-06 08:31 | 38.21930 | 26.47471 | 38079 ft | 388 kts | 310° |
| 2026-05-06 08:31 | 38.25308 | 26.42158 | 38078 ft | 387 kts | 310° |
| 2026-05-06 08:32 | 38.28703 | 26.36811 | 38079 ft | 387 kts | 310° |
| 2026-05-06 08:32 | 38.32072 | 26.31495 | 38081 ft | 387 kts | 310° |
| 2026-05-06 08:33 | 38.35423 | 26.26198 | 38084 ft | 386 kts | 310° |
| 2026-05-06 08:33 | 38.38788 | 26.20870 | 38084 ft | 386 kts | 310° |
| 2026-05-06 08:34 | 38.43823 | 26.12876 | 38089 ft | 386 kts | 310° |
| 2026-05-06 08:35 | 38.47173 | 26.07551 | 38094 ft | 386 kts | 310° |
| 2026-05-06 08:35 | 38.50534 | 26.02212 | 38098 ft | 386 kts | 310° |
| 2026-05-06 08:36 | 38.53888 | 25.96873 | 38108 ft | 386 kts | 310° |
| 2026-05-06 08:36 | 38.57242 | 25.91522 | 38099 ft | 386 kts | 310° |
| 2026-05-06 08:37 | 38.60582 | 25.86180 | 38087 ft | 386 kts | 310° |
| 2026-05-06 08:37 | 38.63914 | 25.80844 | 38083 ft | 386 kts | 310° |
| 2026-05-06 08:38 | 38.67257 | 25.75477 | 38086 ft | 386 kts | 310° |
| 2026-05-06 08:38 | 38.70594 | 25.70111 | 38083 ft | 385 kts | 310° |
| 2026-05-06 08:39 | 38.73915 | 25.64762 | 38075 ft | 385 kts | 310° |
| 2026-05-06 08:39 | 38.77235 | 25.59408 | 38077 ft | 385 kts | 310° |
| 2026-05-06 08:40 | 38.80565 | 25.54030 | 38089 ft | 385 kts | 310° |
| 2026-05-06 08:40 | 38.83874 | 25.48675 | 38083 ft | 384 kts | 310° |
| 2026-05-06 08:41 | 38.87171 | 25.43328 | 38087 ft | 384 kts | 310° |
| 2026-05-06 08:41 | 38.90476 | 25.37960 | 38081 ft | 384 kts | 310° |
| 2026-05-06 08:42 | 38.93787 | 25.32573 | 38077 ft | 383 kts | 310° |
| 2026-05-06 08:42 | 38.97072 | 25.27222 | 38076 ft | 384 kts | 309° |
| 2026-05-06 08:43 | 39.00364 | 25.21848 | 38081 ft | 383 kts | 310° |
| 2026-05-06 08:43 | 39.03642 | 25.16489 | 38070 ft | 382 kts | 310° |
| 2026-05-06 08:44 | 39.06910 | 25.11133 | 38079 ft | 382 kts | 310° |
| 2026-05-06 08:44 | 39.10184 | 25.05769 | 38091 ft | 381 kts | 310° |
| 2026-05-06 08:45 | 39.13454 | 25.00394 | 38077 ft | 380 kts | 310° |
| 2026-05-06 08:45 | 39.16698 | 24.95053 | 38081 ft | 380 kts | 310° |
| 2026-05-06 08:46 | 39.19936 | 24.89714 | 38071 ft | 380 kts | 310° |
| 2026-05-06 08:46 | 39.23186 | 24.84345 | 38071 ft | 381 kts | 310° |
| 2026-05-06 08:47 | 39.26458 | 24.78933 | 38079 ft | 381 kts | 310° |
| 2026-05-06 08:47 | 39.29690 | 24.73578 | 38074 ft | 381 kts | 309° |
| 2026-05-06 08:48 | 39.32940 | 24.68184 | 38075 ft | 382 kts | 310° |
| 2026-05-06 08:48 | 39.36184 | 24.62791 | 38071 ft | 382 kts | 309° |
| 2026-05-06 08:49 | 39.39439 | 24.57371 | 38081 ft | 382 kts | 309° |
| 2026-05-06 08:49 | 39.42683 | 24.51964 | 38066 ft | 382 kts | 309° |
| 2026-05-06 08:50 | 39.45921 | 24.46550 | 38076 ft | 382 kts | 309° |
| 2026-05-06 08:50 | 39.49173 | 24.41105 | 38065 ft | 382 kts | 309° |
| 2026-05-06 08:51 | 39.52409 | 24.35682 | 38070 ft | 382 kts | 309° |
| 2026-05-06 08:51 | 39.55631 | 24.30266 | 38076 ft | 382 kts | 309° |
| 2026-05-06 08:52 | 39.58617 | 24.25245 | 38074 ft | 383 kts | 309° |
| 2026-05-06 08:52 | 39.61852 | 24.19792 | 38065 ft | 383 kts | 309° |
| 2026-05-06 08:53 | 39.65090 | 24.14328 | 38070 ft | 383 kts | 309° |
| 2026-05-06 08:53 | 39.68344 | 24.08825 | 38080 ft | 383 kts | 309° |
| 2026-05-06 08:54 | 39.71580 | 24.03345 | 38060 ft | 382 kts | 309° |
| 2026-05-06 08:54 | 39.74785 | 23.97903 | 38059 ft | 382 kts | 309° |
| 2026-05-06 08:55 | 39.78002 | 23.92435 | 38069 ft | 382 kts | 308° |
| 2026-05-06 08:55 | 39.81236 | 23.86926 | 38061 ft | 382 kts | 309° |
| 2026-05-06 08:56 | 39.84436 | 23.81468 | 38059 ft | 383 kts | 309° |
| 2026-05-06 08:56 | 39.87667 | 23.75948 | 38069 ft | 383 kts | 309° |
| 2026-05-06 08:57 | 39.90883 | 23.70446 | 38075 ft | 383 kts | 308° |
| 2026-05-06 08:57 | 39.94101 | 23.64927 | 38065 ft | 383 kts | 308° |
| 2026-05-06 08:58 | 39.97316 | 23.59403 | 38065 ft | 384 kts | 308° |
| 2026-05-06 08:58 | 40.00531 | 23.53869 | 38070 ft | 383 kts | 308° |
| 2026-05-06 08:59 | 40.03746 | 23.48328 | 38071 ft | 383 kts | 308° |
| 2026-05-06 08:59 | 40.06939 | 23.42816 | 38072 ft | 384 kts | 308° |
| 2026-05-06 09:00 | 40.10157 | 23.37247 | 38062 ft | 384 kts | 308° |
| 2026-05-06 09:00 | 40.13369 | 23.31678 | 38058 ft | 385 kts | 308° |
| 2026-05-06 09:01 | 40.16587 | 23.26093 | 38061 ft | 385 kts | 307° |
| 2026-05-06 09:01 | 40.19794 | 23.20517 | 38065 ft | 386 kts | 307° |
| 2026-05-06 09:02 | 40.23002 | 23.14927 | 38067 ft | 386 kts | 307° |
| 2026-05-06 09:02 | 40.26223 | 23.09307 | 38072 ft | 387 kts | 307° |
| 2026-05-06 09:03 | 40.29451 | 23.03662 | 38078 ft | 386 kts | 307° |
| 2026-05-06 09:03 | 40.32655 | 22.98047 | 38084 ft | 387 kts | 307° |
| 2026-05-06 09:04 | 40.35878 | 22.92388 | 38075 ft | 388 kts | 307° |
| 2026-05-06 09:04 | 40.39085 | 22.86748 | 38075 ft | 388 kts | 307° |
| 2026-05-06 09:05 | 40.42287 | 22.81109 | 38075 ft | 388 kts | 307° |
| 2026-05-06 09:05 | 40.45504 | 22.75434 | 38074 ft | 388 kts | 307° |
| 2026-05-06 09:06 | 40.48730 | 22.69732 | 38073 ft | 388 kts | 307° |
| 2026-05-06 09:06 | 40.51924 | 22.64075 | 38067 ft | 389 kts | 307° |
| 2026-05-06 09:07 | 40.55151 | 22.58347 | 38063 ft | 389 kts | 307° |
| 2026-05-06 09:07 | 40.58347 | 22.52669 | 38064 ft | 389 kts | 307° |
| 2026-05-06 09:07 | 40.59967 | 22.49786 | 38304 ft | 389 kts | 307° |
| 2026-05-06 09:08 | 40.61556 | 22.46958 | 38148 ft | 389 kts | 307° |
| 2026-05-06 09:08 | 40.64768 | 22.41225 | 38071 ft | 389 kts | 307° |
| 2026-05-06 09:09 | 40.67961 | 22.35519 | 38057 ft | 389 kts | 307° |
| 2026-05-06 09:09 | 40.71170 | 22.29771 | 38053 ft | 390 kts | 306° |
| 2026-05-06 09:10 | 40.74366 | 22.24040 | 37838 ft | 389 kts | 306° |
| 2026-05-06 09:10 | 40.75962 | 22.21171 | 38149 ft | 389 kts | 306° |
| 2026-05-06 09:10 | 40.77552 | 22.18312 | 38090 ft | 389 kts | 306° |
| 2026-05-06 09:11 | 40.80748 | 22.12559 | 38078 ft | 390 kts | 306° |
| 2026-05-06 09:11 | 40.83953 | 22.06775 | 38082 ft | 390 kts | 306° |
| 2026-05-06 09:12 | 40.87139 | 22.01014 | 38084 ft | 391 kts | 306° |
| 2026-05-06 09:12 | 40.90350 | 21.95194 | 38086 ft | 391 kts | 306° |
| 2026-05-06 09:13 | 40.93532 | 21.89415 | 38095 ft | 392 kts | 306° |
| 2026-05-06 09:13 | 40.96727 | 21.83607 | 38107 ft | 392 kts | 306° |
| 2026-05-06 09:14 | 40.99931 | 21.77782 | 38115 ft | 392 kts | 306° |
| 2026-05-06 09:14 | 41.03142 | 21.71936 | 38125 ft | 392 kts | 306° |
| 2026-05-06 09:15 | 41.06322 | 21.66131 | 38121 ft | 392 kts | 306° |
| 2026-05-06 09:15 | 41.09513 | 21.60289 | 38112 ft | 391 kts | 306° |
| 2026-05-06 09:16 | 41.12688 | 21.54465 | 37998 ft | 390 kts | 305° |
| 2026-05-06 09:16 | 41.14276 | 21.51545 | 38213 ft | 392 kts | 306° |
| 2026-05-06 09:16 | 41.15860 | 21.48632 | 38138 ft | 391 kts | 306° |
| 2026-05-06 09:17 | 41.19041 | 21.42774 | 38111 ft | 392 kts | 306° |
| 2026-05-06 09:17 | 41.22214 | 21.36918 | 38102 ft | 392 kts | 305° |
| 2026-05-06 09:18 | 41.25400 | 21.31030 | 38100 ft | 392 kts | 305° |
| 2026-05-06 09:18 | 41.28571 | 21.25156 | 38107 ft | 393 kts | 305° |
| 2026-05-06 09:19 | 41.31730 | 21.19294 | 38114 ft | 393 kts | 305° |
| 2026-05-06 09:19 | 41.34912 | 21.13378 | 38118 ft | 393 kts | 304° |
| 2026-05-06 09:20 | 41.38073 | 21.07487 | 38122 ft | 393 kts | 305° |
| 2026-05-06 09:20 | 41.41252 | 21.01554 | 38126 ft | 393 kts | 304° |
| 2026-05-06 09:21 | 41.44430 | 20.95613 | 38125 ft | 394 kts | 304° |
| 2026-05-06 09:21 | 41.47578 | 20.89711 | 38122 ft | 394 kts | 304° |
| 2026-05-06 09:22 | 41.50753 | 20.83749 | 38124 ft | 394 kts | 304° |
| 2026-05-06 09:22 | 41.53904 | 20.77821 | 38127 ft | 394 kts | 304° |
| 2026-05-06 09:23 | 41.57055 | 20.71875 | 38122 ft | 395 kts | 304° |
| 2026-05-06 09:23 | 41.60231 | 20.65871 | 38126 ft | 395 kts | 304° |
| 2026-05-06 09:24 | 41.63385 | 20.59896 | 38121 ft | 395 kts | 304° |
| 2026-05-06 09:24 | 41.66529 | 20.53928 | 38121 ft | 396 kts | 303° |
| 2026-05-06 09:25 | 41.69526 | 20.47762 | 38123 ft | 395 kts | 302° |
| 2026-05-06 09:25 | 41.72452 | 20.41609 | 38121 ft | 395 kts | 302° |
| 2026-05-06 09:26 | 41.75395 | 20.35404 | 38119 ft | 395 kts | 301° |
| 2026-05-06 09:26 | 41.78327 | 20.29208 | 38113 ft | 395 kts | 301° |
| 2026-05-06 09:27 | 41.81268 | 20.22979 | 38110 ft | 395 kts | 301° |
| 2026-05-06 09:27 | 41.84177 | 20.16806 | 38107 ft | 395 kts | 301° |
| 2026-05-06 09:28 | 41.87111 | 20.10568 | 38105 ft | 396 kts | 301° |
| 2026-05-06 09:28 | 41.90031 | 20.04348 | 38102 ft | 396 kts | 301° |
| 2026-05-06 09:29 | 41.92959 | 19.98095 | 38097 ft | 398 kts | 301° |
| 2026-05-06 09:29 | 41.95892 | 19.91822 | 38095 ft | 398 kts | 301° |
| 2026-05-06 09:30 | 41.98815 | 19.85555 | 38091 ft | 397 kts | 300° |
| 2026-05-06 09:30 | 42.01743 | 19.79266 | 38087 ft | 396 kts | 300° |
| 2026-05-06 09:31 | 42.04662 | 19.72980 | 38088 ft | 398 kts | 300° |
| 2026-05-06 09:31 | 42.07574 | 19.66698 | 38086 ft | 397 kts | 300° |
| 2026-05-06 09:32 | 42.10482 | 19.60408 | 38085 ft | 398 kts | 300° |
| 2026-05-06 09:32 | 42.13399 | 19.54086 | 38080 ft | 398 kts | 300° |
| 2026-05-06 09:33 | 42.16299 | 19.47788 | 38080 ft | 399 kts | 300° |
| 2026-05-06 09:33 | 42.19215 | 19.41437 | 38078 ft | 399 kts | 300° |
| 2026-05-06 09:34 | 42.22138 | 19.35059 | 38078 ft | 400 kts | 300° |
| 2026-05-06 09:34 | 42.24913 | 19.28589 | 38078 ft | 399 kts | 297° |
| 2026-05-06 09:35 | 42.27622 | 19.22084 | 38075 ft | 400 kts | 297° |
| 2026-05-06 09:35 | 42.30332 | 19.15561 | 38086 ft | 399 kts | 297° |
| 2026-05-06 09:36 | 42.33029 | 19.09053 | 38093 ft | 400 kts | 297° |
| 2026-05-06 09:36 | 42.35745 | 19.02486 | 38098 ft | 399 kts | 297° |
| 2026-05-06 09:37 | 42.38443 | 18.95948 | 38101 ft | 400 kts | 297° |
| 2026-05-06 09:37 | 42.41122 | 18.89438 | 38099 ft | 400 kts | 297° |
| 2026-05-06 09:38 | 42.43830 | 18.82847 | 38101 ft | 400 kts | 297° |
| 2026-05-06 09:38 | 42.46520 | 18.76285 | 38093 ft | 401 kts | 297° |
| 2026-05-06 09:39 | 42.49209 | 18.69710 | 38087 ft | 401 kts | 297° |
| 2026-05-06 09:39 | 42.51894 | 18.63131 | 38089 ft | 401 kts | 297° |
| 2026-05-06 09:40 | 42.54584 | 18.56521 | 38090 ft | 402 kts | 296° |
| 2026-05-06 09:40 | 42.58608 | 18.46606 | 38082 ft | 401 kts | 297° |
| 2026-05-06 09:41 | 42.61299 | 18.39957 | 38084 ft | 401 kts | 296° |
| 2026-05-06 09:41 | 42.63956 | 18.33376 | 38080 ft | 401 kts | 296° |
| 2026-05-06 09:42 | 42.66626 | 18.26755 | 38075 ft | 401 kts | 296° |
| 2026-05-06 09:42 | 42.69304 | 18.20094 | 38075 ft | 402 kts | 296° |
| 2026-05-06 09:43 | 42.71973 | 18.13439 | 38073 ft | 403 kts | 296° |
| 2026-05-06 09:43 | 42.74642 | 18.06766 | 38074 ft | 403 kts | 296° |
| 2026-05-06 09:44 | 42.77307 | 18.00089 | 38073 ft | 403 kts | 296° |
| 2026-05-06 09:44 | 42.79984 | 17.93370 | 38067 ft | 403 kts | 296° |
| 2026-05-06 09:45 | 42.82641 | 17.86682 | 38058 ft | 404 kts | 296° |
| 2026-05-06 09:45 | 42.85294 | 17.79989 | 38057 ft | 404 kts | 296° |
| 2026-05-06 09:46 | 42.87964 | 17.73242 | 38048 ft | 404 kts | 296° |
| 2026-05-06 09:46 | 42.90623 | 17.66503 | 38050 ft | 404 kts | 295° |
| 2026-05-06 09:47 | 42.93261 | 17.59801 | 38047 ft | 405 kts | 295° |
| 2026-05-06 09:47 | 42.95927 | 17.53009 | 38042 ft | 406 kts | 296° |
| 2026-05-06 09:48 | 42.98583 | 17.46231 | 38040 ft | 406 kts | 295° |
| 2026-05-06 09:48 | 43.01219 | 17.39486 | 38039 ft | 406 kts | 295° |
| 2026-05-06 09:49 | 43.03669 | 17.33204 | 38041 ft | 405 kts | 295° |
| 2026-05-06 09:49 | 43.06323 | 17.26381 | 38041 ft | 406 kts | 295° |
| 2026-05-06 09:50 | 43.07639 | 17.22994 | 37864 ft | 405 kts | 295° |
| 2026-05-06 09:50 | 43.08945 | 17.19624 | 38249 ft | 407 kts | 295° |
| 2026-05-06 09:50 | 43.10265 | 17.16212 | 38100 ft | 407 kts | 295° |
| 2026-05-06 09:50 | 43.11589 | 17.12786 | 38060 ft | 407 kts | 295° |
| 2026-05-06 09:51 | 43.14393 | 17.06012 | 38039 ft | 409 kts | 299° |
| 2026-05-06 09:51 | 43.16357 | 17.01972 | 38036 ft | 410 kts | 301° |
| 2026-05-06 09:52 | 43.19557 | 16.95526 | 38020 ft | 410 kts | 301° |
| 2026-05-06 09:52 | 43.22746 | 16.89082 | 38017 ft | 410 kts | 301° |
| 2026-05-06 09:53 | 43.25922 | 16.82648 | 38015 ft | 410 kts | 301° |
| 2026-05-06 09:53 | 43.29126 | 16.76139 | 38015 ft | 410 kts | 300° |
| 2026-05-06 09:54 | 43.32305 | 16.69665 | 38014 ft | 410 kts | 300° |
| 2026-05-06 09:54 | 43.35469 | 16.63205 | 38013 ft | 410 kts | 300° |
| 2026-05-06 09:55 | 43.38636 | 16.56727 | 38015 ft | 411 kts | 300° |
| 2026-05-06 09:55 | 43.41804 | 16.50230 | 38013 ft | 410 kts | 300° |
| 2026-05-06 09:56 | 43.44984 | 16.43697 | 38010 ft | 410 kts | 300° |
| 2026-05-06 09:56 | 43.48149 | 16.37180 | 38010 ft | 411 kts | 300° |
| 2026-05-06 09:57 | 43.51308 | 16.30662 | 38008 ft | 410 kts | 300° |
| 2026-05-06 09:57 | 43.54456 | 16.24150 | 38006 ft | 411 kts | 299° |
| 2026-05-06 09:58 | 43.57618 | 16.17594 | 38008 ft | 411 kts | 299° |
| 2026-05-06 09:58 | 43.60767 | 16.11053 | 38007 ft | 411 kts | 299° |
| 2026-05-06 09:59 | 43.63894 | 16.04540 | 38005 ft | 410 kts | 299° |
| 2026-05-06 09:59 | 43.67047 | 15.97960 | 38001 ft | 410 kts | 299° |
| 2026-05-06 10:00 | 43.70166 | 15.91437 | 38000 ft | 410 kts | 299° |
| 2026-05-06 10:00 | 43.73308 | 15.84851 | 37986 ft | 410 kts | 299° |
| 2026-05-06 10:01 | 43.76418 | 15.78318 | 37991 ft | 411 kts | 298° |
| 2026-05-06 10:01 | 43.79548 | 15.71724 | 37988 ft | 411 kts | 299° |
| 2026-05-06 10:02 | 43.82677 | 15.65120 | 37988 ft | 410 kts | 299° |
| 2026-05-06 10:02 | 43.85782 | 15.58550 | 37986 ft | 411 kts | 298° |
| 2026-05-06 10:03 | 43.88904 | 15.51931 | 37988 ft | 411 kts | 298° |
| 2026-05-06 10:03 | 43.92016 | 15.45320 | 37981 ft | 411 kts | 298° |
| 2026-05-06 10:04 | 43.95126 | 15.38697 | 37981 ft | 412 kts | 298° |
| 2026-05-06 10:04 | 43.98238 | 15.32055 | 37981 ft | 412 kts | 297° |
| 2026-05-06 10:05 | 44.01353 | 15.25391 | 37977 ft | 411 kts | 297° |
| 2026-05-06 10:05 | 44.04452 | 15.18743 | 37977 ft | 411 kts | 297° |
| 2026-05-06 10:06 | 44.07541 | 15.12097 | 37963 ft | 412 kts | 297° |
| 2026-05-06 10:06 | 44.09098 | 15.08746 | 37685 ft | 412 kts | 297° |
| 2026-05-06 10:06 | 44.10639 | 15.05423 | 38064 ft | 412 kts | 297° |
| 2026-05-06 10:07 | 44.12195 | 15.02063 | 37872 ft | 411 kts | 297° |
| 2026-05-06 10:07 | 44.13728 | 14.98753 | 37942 ft | 413 kts | 297° |
| 2026-05-06 10:07 | 44.16835 | 14.92025 | 37968 ft | 413 kts | 297° |
| 2026-05-06 10:08 | 44.19934 | 14.85306 | 37969 ft | 413 kts | 297° |
| 2026-05-06 10:08 | 44.23018 | 14.78603 | 37965 ft | 413 kts | 297° |
| 2026-05-06 10:09 | 44.26100 | 14.71887 | 37961 ft | 412 kts | 297° |
| 2026-05-06 10:09 | 44.29174 | 14.65167 | 37961 ft | 412 kts | 297° |
| 2026-05-06 10:10 | 44.32250 | 14.58433 | 37962 ft | 412 kts | 297° |
| 2026-05-06 10:10 | 44.35315 | 14.51708 | 37958 ft | 411 kts | 297° |
| 2026-05-06 10:11 | 44.38372 | 14.44978 | 37960 ft | 412 kts | 297° |
| 2026-05-06 10:11 | 44.41425 | 14.38246 | 37957 ft | 411 kts | 297° |
| 2026-05-06 10:12 | 44.44470 | 14.31521 | 37957 ft | 411 kts | 296° |
| 2026-05-06 10:12 | 44.47503 | 14.24802 | 37953 ft | 409 kts | 296° |
| 2026-05-06 10:13 | 44.50528 | 14.18082 | 37953 ft | 410 kts | 296° |
| 2026-05-06 10:13 | 44.53548 | 14.11359 | 37956 ft | 409 kts | 296° |
| 2026-05-06 10:14 | 44.56575 | 14.04611 | 37955 ft | 409 kts | 295° |
| 2026-05-06 10:14 | 44.59584 | 13.97876 | 37952 ft | 409 kts | 296° |
| 2026-05-06 10:15 | 44.62567 | 13.91189 | 37956 ft | 408 kts | 296° |
| 2026-05-06 10:15 | 44.65573 | 13.84434 | 37951 ft | 408 kts | 296° |
| 2026-05-06 10:16 | 44.68556 | 13.77720 | 37953 ft | 408 kts | 295° |
| 2026-05-06 10:16 | 44.71550 | 13.70961 | 37954 ft | 407 kts | 295° |
| 2026-05-06 10:17 | 44.74535 | 13.64204 | 37947 ft | 407 kts | 295° |
| 2026-05-06 10:17 | 44.77496 | 13.57492 | 37940 ft | 407 kts | 295° |
| 2026-05-06 10:18 | 44.80466 | 13.50735 | 37937 ft | 407 kts | 295° |
| 2026-05-06 10:18 | 44.83447 | 13.43943 | 37932 ft | 407 kts | 295° |
| 2026-05-06 10:19 | 44.86403 | 13.37189 | 37923 ft | 406 kts | 295° |
| 2026-05-06 10:19 | 44.89337 | 13.30465 | 37920 ft | 406 kts | 295° |
| 2026-05-06 10:20 | 44.92283 | 13.23702 | 37918 ft | 406 kts | 294° |
| 2026-05-06 10:20 | 44.95238 | 13.16896 | 37916 ft | 407 kts | 294° |
| 2026-05-06 10:21 | 44.98166 | 13.10142 | 37916 ft | 408 kts | 295° |
| 2026-05-06 10:21 | 45.01290 | 13.03425 | 37909 ft | 409 kts | 296° |
| 2026-05-06 10:22 | 45.04424 | 12.96784 | 37901 ft | 408 kts | 297° |
| 2026-05-06 10:22 | 45.07567 | 12.90094 | 37913 ft | 409 kts | 296° |
| 2026-05-06 10:23 | 45.10701 | 12.83407 | 37899 ft | 408 kts | 296° |
| 2026-05-06 10:23 | 45.13827 | 12.76716 | 37905 ft | 408 kts | 296° |
| 2026-05-06 10:24 | 45.16925 | 12.70067 | 37900 ft | 408 kts | 296° |
| 2026-05-06 10:24 | 45.20056 | 12.63334 | 37889 ft | 409 kts | 296° |
| 2026-05-06 10:25 | 45.23145 | 12.56672 | 37899 ft | 408 kts | 296° |
| 2026-05-06 10:25 | 45.26252 | 12.49959 | 37891 ft | 407 kts | 296° |
| 2026-05-06 10:26 | 45.29348 | 12.43253 | 37892 ft | 408 kts | 296° |
| 2026-05-06 10:26 | 45.32438 | 12.36546 | 37902 ft | 408 kts | 296° |
| 2026-05-06 10:27 | 45.35547 | 12.29778 | 37896 ft | 407 kts | 295° |
| 2026-05-06 10:27 | 45.38631 | 12.23051 | 37904 ft | 408 kts | 295° |
| 2026-05-06 10:28 | 45.41697 | 12.16344 | 37910 ft | 408 kts | 295° |
| 2026-05-06 10:28 | 45.44787 | 12.09570 | 37895 ft | 409 kts | 296° |
| 2026-05-06 10:29 | 45.47862 | 12.02813 | 37906 ft | 409 kts | 296° |
| 2026-05-06 10:29 | 45.50965 | 11.95979 | 37916 ft | 409 kts | 296° |
| 2026-05-06 10:30 | 45.54032 | 11.89206 | 37898 ft | 409 kts | 295° |
| 2026-05-06 10:30 | 45.57099 | 11.82413 | 37899 ft | 409 kts | 295° |
| 2026-05-06 10:31 | 45.60174 | 11.75588 | 37900 ft | 409 kts | 295° |
| 2026-05-06 10:31 | 45.63248 | 11.68782 | 37887 ft | 411 kts | 297° |
| 2026-05-06 10:32 | 45.66637 | 11.62171 | 37893 ft | 413 kts | 300° |
| 2026-05-06 10:32 | 45.70095 | 11.55642 | 37885 ft | 413 kts | 300° |
| 2026-05-06 10:33 | 45.73553 | 11.49099 | 37890 ft | 414 kts | 300° |
| 2026-05-06 10:33 | 45.77018 | 11.42515 | 37887 ft | 415 kts | 300° |
| 2026-05-06 10:34 | 45.80461 | 11.35954 | 37901 ft | 414 kts | 300° |
| 2026-05-06 10:34 | 45.83883 | 11.29418 | 37896 ft | 413 kts | 299° |
| 2026-05-06 10:35 | 45.87332 | 11.22815 | 37883 ft | 414 kts | 299° |
| 2026-05-06 10:35 | 45.90777 | 11.16207 | 37910 ft | 414 kts | 299° |
| 2026-05-06 10:36 | 45.94199 | 11.09627 | 37912 ft | 414 kts | 299° |
| 2026-05-06 10:36 | 45.97641 | 11.02992 | 37896 ft | 415 kts | 299° |
| 2026-05-06 10:37 | 46.01082 | 10.96344 | 37899 ft | 416 kts | 298° |
| 2026-05-06 10:37 | 46.04516 | 10.89692 | 37904 ft | 415 kts | 298° |
| 2026-05-06 10:38 | 46.07941 | 10.83036 | 37916 ft | 417 kts | 298° |
| 2026-05-06 10:38 | 46.11379 | 10.76343 | 37898 ft | 417 kts | 299° |
| 2026-05-06 10:39 | 46.14835 | 10.69601 | 37900 ft | 417 kts | 299° |
| 2026-05-06 10:39 | 46.18249 | 10.62926 | 37898 ft | 416 kts | 299° |
| 2026-05-06 10:40 | 46.21680 | 10.56198 | 37894 ft | 418 kts | 299° |
| 2026-05-06 10:40 | 46.25097 | 10.49486 | 37897 ft | 416 kts | 299° |
| 2026-05-06 10:41 | 46.28503 | 10.42770 | 37891 ft | 417 kts | 300° |
| 2026-05-06 10:41 | 46.31934 | 10.35997 | 37901 ft | 419 kts | 299° |
| 2026-05-06 10:42 | 46.35358 | 10.29220 | 37900 ft | 418 kts | 298° |
| 2026-05-06 10:42 | 46.38795 | 10.22400 | 37897 ft | 419 kts | 298° |
| 2026-05-06 10:43 | 46.42205 | 10.15605 | 37873 ft | 419 kts | 299° |
| 2026-05-06 10:44 | 46.47363 | 10.05379 | 37863 ft | 421 kts | 301° |
| 2026-05-06 10:44 | 46.51162 | 9.98881 | 37849 ft | 426 kts | 304° |
| 2026-05-06 10:45 | 46.55078 | 9.92456 | 37841 ft | 426 kts | 305° |
| 2026-05-06 10:45 | 46.58989 | 9.86023 | 37848 ft | 426 kts | 305° |
| 2026-05-06 10:46 | 46.62884 | 9.79596 | 37849 ft | 427 kts | 305° |
| 2026-05-06 10:46 | 46.66795 | 9.73117 | 37846 ft | 427 kts | 305° |
| 2026-05-06 10:47 | 46.70693 | 9.66643 | 37838 ft | 427 kts | 305° |
| 2026-05-06 10:47 | 46.74616 | 9.60111 | 37834 ft | 429 kts | 306° |
| 2026-05-06 10:48 | 46.78534 | 9.53580 | 37839 ft | 429 kts | 305° |
| 2026-05-06 10:48 | 46.82433 | 9.47055 | 37839 ft | 428 kts | 306° |
| 2026-05-06 10:49 | 46.86333 | 9.40520 | 37855 ft | 429 kts | 306° |
| 2026-05-06 10:49 | 46.90230 | 9.33967 | 37838 ft | 430 kts | 305° |
| 2026-05-06 10:50 | 46.94150 | 9.27363 | 37828 ft | 430 kts | 305° |
| 2026-05-06 10:50 | 46.98043 | 9.20791 | 37810 ft | 429 kts | 305° |
| 2026-05-06 10:51 | 47.01951 | 9.14168 | 37812 ft | 431 kts | 305° |
| 2026-05-06 10:51 | 47.05860 | 9.07533 | 37812 ft | 432 kts | 305° |
| 2026-05-06 10:52 | 47.09768 | 9.00878 | 37800 ft | 433 kts | 305° |
| 2026-05-06 10:52 | 47.13392 | 8.93922 | 37811 ft | 428 kts | 298° |
| 2026-05-06 10:53 | 47.16419 | 8.86423 | 37844 ft | 424 kts | 292° |
| 2026-05-06 10:53 | 47.18790 | 8.78606 | 37837 ft | 420 kts | 286° |
| 2026-05-06 10:54 | 47.20838 | 8.70572 | 37829 ft | 419 kts | 285° |
| 2026-05-06 10:54 | 47.22863 | 8.62566 | 37906 ft | 420 kts | 285° |
| 2026-05-06 10:55 | 47.24893 | 8.54543 | 37857 ft | 419 kts | 285° |
| 2026-05-06 10:55 | 47.26908 | 8.46565 | 37827 ft | 418 kts | 285° |